This is the latest recevied weather packets stored in our database for station/object KL7LK-13. If no packets are shown the sender has not sent any weather packets the latest 10 day(s).
| Time | Temp. | Humidity | Pressure | Rain* | Wind** | Luminosity | Snow |
|---|---|---|---|---|---|---|---|
| 1777764707 | 11.67° C | 41% | 1030.9 hPa | - | - | 236 W/m² | - |
| 1777761732 | 11.67° C | 41% | 1030.6 hPa | - | - | 301 W/m² | - |
| 1777759996 | 11.67° C | 41% | 1030.2 hPa | - | - | 272 W/m² | - |
| 1777755162 | 11.67° C | 48% | 1029.8 hPa | - | - | 525 W/m² | - |
| 1777753303 | 10° C | 52% | 1029.4 hPa | - | - | 344 W/m² | - |
| 1777752187 | 9.44° C | 55% | 1029.4 hPa | - | - | 285 W/m² | - |
| 1777751567 | 8.89° C | 58% | 1029.1 hPa | - | - | 258 W/m² | - |
| 1777747351 | 8.33° C | 62% | 1028.2 hPa | - | - | 188 W/m² | - |
| 1777745615 | 8.33° C | 63% | 1027.9 hPa | - | - | 197 W/m² | - |
| 1777744376 | 8.33° C | 63% | 1027.7 hPa | - | - | 254 W/m² | - |
| 1777742538 | 7.78° C | 67% | 1027.2 hPa | - | - | 194 W/m² | - |
| 1777738304 | 5° C | 80% | 1026 hPa | - | - | 93 W/m² | - |
| 1777736569 | 4.44° C | 84% | 1025.7 hPa | - | - | 65 W/m² | - |
| 1777734711 | 3.89° C | 85% | 1025.3 hPa | - | - | 32 W/m² | - |
| 1777732356 | 3.89° C | 82% | 1024.6 hPa | - | - | 20 W/m² | - |
| 1777731117 | 3.89° C | 82% | 1024.7 hPa | - | - | 11 W/m² | - |
| 1777730621 | 4.44° C | 81% | 1024.3 hPa | - | - | 5 W/m² | - |
| 1777730002 | 4.44° C | 81% | 1024.3 hPa | - | - | 4 W/m² | - |
| 1777728144 | 4.44° C | 81% | 1023.8 hPa | - | - | 0 W/m² | - |
| 1777724570 | 5° C | 74% | 1022.7 hPa | - | - | 0 W/m² | - |
| 1777721574 | 5° C | 70% | 1021.5 hPa | - | - | 0 W/m² | - |
| 1777720335 | 5° C | 70% | 1021 hPa | - | - | 0 W/m² | - |
| 1777717980 | 6.11° C | 70% | 1019.8 hPa | - | - | 0 W/m² | - |
| 1777715006 | 4.44° C | 79% | 1019 hPa | - | - | 0 W/m² | - |
| 1777712549 | 3.89° C | 80% | 1018 hPa | - | - | 0 W/m² | - |
* Rain since midnight (hover to see other rain measurements)
** Current wind speed in m/s (hover to see current wind gust speed)